createdAt,value
2017-10-26T00:00:22.136Z,11.59
2017-10-26T00:01:22.652Z,11.54
2017-10-26T00:02:21.840Z,11.52
2017-10-26T00:03:21.719Z,11.51
2017-10-26T00:04:21.512Z,11.48
2017-10-26T00:05:21.625Z,11.48
2017-10-26T00:06:21.376Z,11.47
2017-10-26T00:07:21.582Z,11.47
2017-10-26T00:08:22.033Z,11.47
2017-10-26T00:09:21.830Z,11.44
2017-10-26T00:10:22.063Z,11.44
2017-10-26T00:11:22.157Z,11.47
2017-10-26T00:12:21.896Z,11.47
2017-10-26T00:13:22.258Z,11.47
2017-10-26T00:14:20.933Z,11.50
2017-10-26T00:15:22.202Z,11.52
2017-10-26T00:16:22.398Z,11.54
2017-10-26T00:17:24.511Z,11.55
2017-10-26T00:18:21.695Z,11.59
2017-10-26T00:19:21.447Z,11.63
2017-10-26T00:20:21.770Z,11.65
2017-10-26T00:21:21.356Z,11.65
2017-10-26T00:22:21.757Z,11.68
2017-10-26T00:23:21.113Z,11.70
2017-10-26T00:24:22.298Z,11.73
2017-10-26T00:25:23.630Z,11.73
2017-10-26T00:26:21.771Z,11.77
2017-10-26T00:27:23.018Z,11.78
2017-10-26T00:28:21.936Z,11.80
2017-10-26T00:29:21.776Z,11.83
2017-10-26T00:30:21.835Z,11.84
2017-10-26T00:31:21.642Z,11.83
2017-10-26T00:32:23.531Z,11.86
2017-10-26T00:33:21.636Z,11.87
2017-10-26T00:34:21.452Z,11.87
2017-10-26T00:35:21.218Z,11.88
2017-10-26T00:36:21.219Z,11.87
2017-10-26T00:37:21.281Z,11.87
2017-10-26T00:38:22.053Z,11.87
2017-10-26T00:39:21.734Z,11.86
2017-10-26T00:40:21.597Z,11.84
2017-10-26T00:41:21.469Z,11.84
2017-10-26T00:42:21.161Z,11.83
2017-10-26T00:43:21.637Z,11.84
2017-10-26T00:44:22.396Z,11.86
2017-10-26T00:45:21.297Z,11.87
2017-10-26T00:46:21.460Z,11.86
2017-10-26T00:47:21.202Z,11.86
2017-10-26T00:48:22.256Z,11.81
2017-10-26T00:49:21.661Z,11.81
2017-10-26T00:50:21.744Z,11.83
2017-10-26T00:51:21.733Z,11.81
2017-10-26T00:52:23.245Z,11.83
2017-10-26T00:53:23.324Z,11.81
2017-10-26T00:54:21.021Z,11.81
2017-10-26T00:55:22.184Z,11.81
2017-10-26T00:56:21.586Z,11.81
2017-10-26T00:57:22.358Z,11.78
2017-10-26T00:58:21.719Z,11.75
2017-10-26T00:59:22.065Z,11.72
2017-10-26T01:00:22.421Z,11.73
2017-10-26T01:01:21.423Z,11.75
2017-10-26T01:02:21.117Z,11.72
2017-10-26T01:03:21.875Z,11.72
2017-10-26T01:04:22.246Z,11.70
2017-10-26T01:05:21.404Z,11.66
2017-10-26T01:06:21.130Z,11.66
2017-10-26T01:07:20.952Z,11.65
2017-10-26T01:08:22.175Z,11.66
2017-10-26T01:09:21.282Z,11.68
2017-10-26T01:10:21.353Z,11.66
2017-10-26T01:11:21.553Z,11.68
2017-10-26T01:12:21.688Z,11.65
2017-10-26T01:13:21.939Z,11.63
2017-10-26T01:14:22.269Z,11.63
2017-10-26T01:15:22.633Z,11.63
2017-10-26T01:16:22.142Z,11.62
2017-10-26T01:17:21.337Z,11.63
2017-10-26T01:18:22.418Z,11.60
2017-10-26T01:19:21.251Z,11.60
2017-10-26T01:20:20.996Z,11.63
2017-10-26T01:21:22.565Z,11.63
2017-10-26T01:22:21.954Z,11.68
2017-10-26T01:23:22.146Z,11.68
2017-10-26T01:24:21.533Z,11.69
2017-10-26T01:25:21.784Z,11.73
2017-10-26T01:26:22.030Z,11.80
2017-10-26T01:27:21.676Z,11.83
2017-10-26T01:28:21.124Z,11.88
2017-10-26T01:29:20.936Z,11.90
2017-10-26T01:30:21.953Z,11.94
2017-10-26T01:31:22.022Z,11.94
2017-10-26T01:32:20.903Z,11.95
2017-10-26T01:33:21.607Z,11.95
2017-10-26T01:34:21.354Z,11.95
2017-10-26T01:35:21.430Z,11.95
2017-10-26T01:36:21.206Z,11.97
2017-10-26T01:37:21.303Z,11.95
2017-10-26T01:38:21.560Z,11.91
2017-10-26T01:39:21.301Z,11.94
2017-10-26T01:40:21.715Z,11.91
2017-10-26T01:41:23.963Z,11.90
2017-10-26T01:42:22.433Z,11.90
2017-10-26T01:43:21.490Z,11.90
2017-10-26T01:44:21.286Z,11.88
2017-10-26T01:45:21.749Z,11.83
2017-10-26T01:46:21.595Z,11.78
2017-10-26T01:47:21.877Z,11.73
2017-10-26T01:48:22.345Z,11.72
2017-10-26T01:49:22.096Z,11.73
2017-10-26T01:50:21.818Z,11.77
2017-10-26T01:51:21.551Z,11.77
2017-10-26T01:52:21.336Z,11.78
2017-10-26T01:53:21.600Z,11.78
2017-10-26T01:54:21.684Z,11.77
2017-10-26T01:55:21.579Z,11.73
2017-10-26T01:56:21.349Z,11.75
2017-10-26T01:57:21.641Z,11.75
2017-10-26T01:58:21.811Z,11.77
2017-10-26T01:59:21.317Z,11.80
2017-10-26T02:00:21.531Z,11.81
2017-10-26T02:01:21.575Z,11.83
2017-10-26T02:02:21.588Z,11.86
2017-10-26T02:03:21.844Z,11.84
2017-10-26T02:04:22.069Z,11.86
2017-10-26T02:05:22.576Z,11.86
2017-10-26T02:06:22.198Z,11.87
2017-10-26T02:07:22.020Z,11.84
2017-10-26T02:08:22.196Z,11.84
2017-10-26T02:09:21.519Z,11.83
2017-10-26T02:10:21.677Z,11.80
2017-10-26T02:11:21.799Z,11.81
2017-10-26T02:12:21.941Z,11.81
2017-10-26T02:13:21.973Z,11.83
2017-10-26T02:14:22.332Z,11.80
2017-10-26T02:15:22.531Z,11.78
2017-10-26T02:16:21.252Z,11.75
2017-10-26T02:17:21.580Z,11.73
2017-10-26T02:18:21.567Z,11.70
2017-10-26T02:19:21.964Z,11.70
2017-10-26T02:20:21.264Z,11.70
2017-10-26T02:21:21.224Z,11.70
2017-10-26T02:22:22.012Z,11.70
2017-10-26T02:23:22.281Z,11.72
2017-10-26T02:24:23.422Z,11.70
2017-10-26T02:25:21.100Z,11.69
2017-10-26T02:26:21.767Z,11.66
2017-10-26T02:27:22.039Z,11.65
2017-10-26T02:28:21.901Z,11.63
2017-10-26T02:29:22.155Z,11.62
2017-10-26T02:30:20.831Z,11.62
2017-10-26T02:31:21.616Z,11.62
2017-10-26T02:32:21.783Z,11.60
2017-10-26T02:33:22.337Z,11.60
2017-10-26T02:34:21.320Z,11.59
2017-10-26T02:35:21.129Z,11.59
2017-10-26T02:36:21.334Z,11.60
2017-10-26T02:37:22.695Z,11.65
2017-10-26T02:38:21.672Z,11.65
2017-10-26T02:39:21.951Z,11.63
2017-10-26T02:40:22.163Z,11.62
2017-10-26T02:41:21.402Z,11.60
2017-10-26T02:42:21.470Z,11.63
2017-10-26T02:43:21.589Z,11.63
2017-10-26T02:44:21.468Z,11.62
2017-10-26T02:45:21.661Z,11.63
2017-10-26T02:46:21.702Z,11.66
2017-10-26T02:47:22.050Z,11.68
2017-10-26T02:48:21.852Z,11.68
2017-10-26T02:49:22.024Z,11.69
2017-10-26T02:50:21.143Z,11.72
2017-10-26T02:51:21.400Z,11.73
2017-10-26T02:52:21.558Z,11.77
2017-10-26T02:53:21.143Z,11.78
2017-10-26T02:54:23.578Z,11.78
2017-10-26T02:55:22.421Z,11.81
2017-10-26T02:56:22.613Z,11.83
2017-10-26T02:57:21.302Z,11.87
2017-10-26T02:58:21.008Z,11.87
2017-10-26T02:59:22.149Z,11.91
2017-10-26T03:00:21.297Z,11.94
2017-10-26T03:01:21.699Z,11.95
2017-10-26T03:02:21.936Z,11.97
2017-10-26T03:03:21.723Z,12.00
2017-10-26T03:04:21.597Z,12.03
2017-10-26T03:05:21.715Z,12.04
2017-10-26T03:06:23.229Z,12.03
2017-10-26T03:07:21.601Z,12.07
2017-10-26T03:08:21.848Z,12.09
2017-10-26T03:09:21.702Z,12.10
2017-10-26T03:10:22.461Z,12.13
2017-10-26T03:11:21.690Z,12.13
2017-10-26T03:12:21.992Z,12.15
2017-10-26T03:13:21.640Z,12.15
2017-10-26T03:14:21.392Z,12.17
2017-10-26T03:15:21.818Z,12.18
2017-10-26T03:16:21.534Z,12.18
2017-10-26T03:17:22.004Z,12.20
2017-10-26T03:18:21.446Z,12.21
2017-10-26T03:19:21.236Z,12.21
2017-10-26T03:20:21.633Z,12.22
2017-10-26T03:21:21.381Z,12.22
2017-10-26T03:22:21.571Z,12.22
2017-10-26T03:23:21.885Z,12.24
2017-10-26T03:24:22.218Z,12.27
2017-10-26T03:25:21.058Z,12.27
2017-10-26T03:26:21.773Z,12.28
2017-10-26T03:27:21.612Z,12.29
2017-10-26T03:28:21.834Z,12.31
2017-10-26T03:29:21.986Z,12.29
2017-10-26T03:30:21.119Z,12.35
2017-10-26T03:31:20.890Z,12.35
2017-10-26T03:32:21.748Z,12.36
2017-10-26T03:33:21.748Z,12.37
2017-10-26T03:34:22.002Z,12.37
2017-10-26T03:35:23.938Z,12.37
2017-10-26T03:36:21.952Z,12.37
2017-10-26T03:37:21.684Z,12.39
2017-10-26T03:38:21.391Z,12.42
2017-10-26T03:39:21.184Z,12.42
2017-10-26T03:40:22.218Z,12.42
2017-10-26T03:41:20.912Z,12.43
2017-10-26T03:42:21.607Z,12.42
2017-10-26T03:43:21.740Z,12.42
2017-10-26T03:44:22.061Z,12.40
2017-10-26T03:45:21.287Z,12.39
2017-10-26T03:46:21.419Z,12.39
2017-10-26T03:47:21.336Z,12.37
2017-10-26T03:48:21.619Z,12.39
2017-10-26T03:49:21.943Z,12.39
2017-10-26T03:50:22.324Z,12.39
2017-10-26T03:51:21.966Z,12.39
2017-10-26T03:52:21.014Z,12.39
2017-10-26T03:53:21.670Z,12.39
2017-10-26T03:54:21.736Z,12.40
2017-10-26T03:55:21.867Z,12.39
2017-10-26T03:56:22.018Z,12.40
2017-10-26T03:57:21.719Z,12.40
2017-10-26T03:58:21.825Z,12.40
2017-10-26T03:59:20.786Z,12.40
2017-10-26T04:00:21.939Z,12.39
2017-10-26T04:01:21.821Z,12.37
2017-10-26T04:02:22.064Z,12.36
2017-10-26T04:03:20.807Z,12.35
2017-10-26T04:04:37.560Z,12.35
2017-10-26T04:05:37.344Z,12.32
2017-10-26T04:06:39.512Z,12.32
2017-10-26T04:07:38.609Z,12.32
2017-10-26T04:08:38.233Z,12.32
2017-10-26T04:09:39.187Z,12.32
2017-10-26T04:10:38.298Z,12.32
2017-10-26T04:11:39.060Z,12.35
2017-10-26T04:12:38.206Z,12.35
2017-10-26T04:13:38.022Z,12.36
2017-10-26T04:14:37.854Z,12.35
2017-10-26T04:15:37.597Z,12.37
2017-10-26T04:16:38.181Z,12.37
2017-10-26T04:17:38.303Z,12.39
2017-10-26T04:18:38.051Z,12.37
2017-10-26T04:19:38.314Z,12.37
2017-10-26T04:20:38.117Z,12.36
2017-10-26T04:21:38.015Z,12.37
2017-10-26T04:22:38.176Z,12.39
2017-10-26T04:23:38.384Z,12.37
2017-10-26T04:24:38.244Z,12.37
2017-10-26T04:25:38.360Z,12.39
2017-10-26T04:26:38.104Z,12.39
2017-10-26T04:27:38.556Z,12.37
2017-10-26T04:28:37.587Z,12.39
2017-10-26T04:29:37.285Z,12.36
2017-10-26T04:30:37.810Z,12.36
2017-10-26T04:31:37.955Z,12.35
2017-10-26T04:32:38.453Z,12.35
2017-10-26T04:33:38.757Z,12.35
2017-10-26T04:34:37.593Z,12.35
2017-10-26T04:35:38.359Z,12.35
2017-10-26T04:36:38.468Z,12.36
2017-10-26T04:37:38.648Z,12.35
2017-10-26T04:38:37.923Z,12.31
2017-10-26T04:39:38.093Z,12.31
2017-10-26T04:40:37.757Z,12.28
2017-10-26T04:41:37.393Z,12.27
2017-10-26T04:42:38.555Z,12.24
2017-10-26T04:43:38.256Z,12.25
2017-10-26T04:44:38.384Z,12.27
2017-10-26T04:45:38.634Z,12.27
2017-10-26T04:46:37.666Z,12.25
2017-10-26T04:47:37.817Z,12.25
2017-10-26T04:48:38.013Z,12.25
2017-10-26T04:49:42.565Z,12.24
2017-10-26T04:50:38.171Z,12.22
2017-10-26T04:51:37.864Z,12.21
2017-10-26T04:52:38.153Z,12.21
2017-10-26T04:53:38.638Z,12.21
2017-10-26T04:54:37.956Z,12.21
2017-10-26T04:55:38.059Z,12.24
2017-10-26T04:56:38.729Z,12.24
2017-10-26T04:57:37.796Z,12.24
2017-10-26T04:58:37.681Z,12.25
2017-10-26T04:59:38.137Z,12.24
2017-10-26T05:00:38.044Z,12.27
2017-10-26T05:01:38.084Z,12.27
2017-10-26T05:02:38.327Z,12.28
2017-10-26T05:03:38.126Z,12.29
2017-10-26T05:04:38.793Z,12.28
2017-10-26T05:05:37.783Z,12.28
2017-10-26T05:06:38.145Z,12.28
2017-10-26T05:07:38.283Z,12.29
2017-10-26T05:08:38.310Z,12.31
2017-10-26T05:09:38.742Z,12.28
2017-10-26T05:10:37.798Z,12.27
2017-10-26T05:11:37.521Z,12.25
2017-10-26T05:12:38.591Z,12.25
2017-10-26T05:13:38.025Z,12.24
2017-10-26T05:14:38.222Z,12.21
2017-10-26T05:15:38.266Z,12.20
2017-10-26T05:16:37.982Z,12.18
2017-10-26T05:17:37.835Z,12.18
2017-10-26T05:18:37.594Z,12.17
2017-10-26T05:19:38.395Z,12.15
2017-10-26T05:20:39.784Z,12.13
2017-10-26T05:21:37.829Z,12.15
2017-10-26T05:22:37.587Z,12.13
2017-10-26T05:23:37.393Z,12.13
2017-10-26T05:24:39.015Z,12.12
2017-10-26T05:25:38.824Z,12.10
2017-10-26T05:26:37.939Z,12.09
2017-10-26T05:27:38.823Z,12.07
2017-10-26T05:28:37.493Z,12.07
2017-10-26T05:29:38.268Z,12.10
2017-10-26T05:30:38.426Z,12.09
2017-10-26T05:31:38.688Z,12.10
2017-10-26T05:32:38.113Z,12.12
2017-10-26T05:33:38.091Z,12.13
2017-10-26T05:34:38.432Z,12.15
2017-10-26T05:35:37.575Z,12.15
2017-10-26T05:36:37.812Z,12.15
2017-10-26T05:37:37.531Z,12.17
2017-10-26T05:38:37.516Z,12.18
2017-10-26T05:39:38.621Z,12.18
2017-10-26T05:40:37.391Z,12.18
2017-10-26T05:41:37.606Z,12.20
2017-10-26T05:42:38.293Z,12.21
2017-10-26T05:43:38.338Z,12.21
2017-10-26T05:44:38.480Z,12.24
2017-10-26T05:45:37.825Z,12.22
2017-10-26T05:46:43.288Z,12.27
2017-10-26T05:47:38.384Z,12.27
2017-10-26T05:48:38.118Z,12.29
2017-10-26T05:49:37.893Z,12.29
2017-10-26T05:50:38.145Z,12.32
2017-10-26T05:51:38.009Z,12.32
2017-10-26T05:52:37.587Z,12.31
2017-10-26T05:53:38.452Z,12.31
2017-10-26T05:54:38.517Z,12.31
2017-10-26T05:55:38.412Z,12.29
2017-10-26T05:56:39.363Z,12.29
2017-10-26T05:57:38.164Z,12.27
2017-10-26T05:58:38.472Z,12.24
2017-10-26T05:59:37.907Z,12.22
2017-10-26T06:00:37.658Z,12.24
2017-10-26T06:01:37.475Z,12.24
2017-10-26T06:02:37.902Z,12.21
2017-10-26T06:03:38.661Z,12.20
2017-10-26T06:04:37.650Z,12.20
2017-10-26T06:05:39.862Z,12.18
2017-10-26T06:06:37.707Z,12.17
2017-10-26T06:07:38.552Z,12.17
2017-10-26T06:08:37.330Z,12.12
2017-10-26T06:09:38.991Z,12.10
2017-10-26T06:10:37.784Z,12.07
2017-10-26T06:11:37.627Z,12.07
2017-10-26T06:12:37.721Z,12.07
2017-10-26T06:13:38.563Z,12.07
2017-10-26T06:14:37.487Z,12.06
2017-10-26T06:15:37.649Z,12.06
2017-10-26T06:16:38.495Z,12.06
2017-10-26T06:17:37.844Z,12.06
2017-10-26T06:18:38.602Z,12.06
2017-10-26T06:19:37.651Z,12.06
2017-10-26T06:20:38.265Z,12.06
2017-10-26T06:21:38.396Z,12.04
2017-10-26T06:22:38.819Z,12.03
2017-10-26T06:23:38.049Z,12.02
2017-10-26T06:24:38.606Z,11.99
2017-10-26T06:25:37.563Z,11.99
2017-10-26T06:26:38.373Z,11.95
2017-10-26T06:27:37.635Z,11.91
2017-10-26T06:28:38.070Z,11.88
2017-10-26T06:29:37.993Z,11.87
2017-10-26T06:30:38.470Z,11.84
2017-10-26T06:31:39.012Z,11.86
2017-10-26T06:32:38.162Z,11.86
2017-10-26T06:33:45.116Z,11.86
2017-10-26T06:34:37.736Z,11.83
2017-10-26T06:35:37.564Z,11.84
2017-10-26T06:36:37.335Z,11.84
2017-10-26T06:37:39.241Z,11.81
2017-10-26T06:38:38.613Z,11.81
2017-10-26T06:39:37.566Z,11.81
2017-10-26T06:40:37.393Z,11.81
2017-10-26T06:41:38.295Z,11.83
2017-10-26T06:42:38.737Z,11.81
2017-10-26T06:43:40.377Z,11.81
2017-10-26T06:44:38.458Z,11.80
2017-10-26T06:45:37.604Z,11.80
2017-10-26T06:46:37.855Z,11.84
2017-10-26T06:47:37.564Z,11.87
2017-10-26T06:48:38.954Z,11.88
2017-10-26T06:49:38.772Z,11.88
2017-10-26T06:50:37.819Z,11.90
2017-10-26T06:51:37.801Z,11.90
2017-10-26T06:52:38.014Z,11.91
2017-10-26T06:53:38.890Z,11.95
2017-10-26T06:54:39.092Z,11.95
2017-10-26T06:55:38.131Z,12.00
2017-10-26T06:56:38.095Z,12.02
2017-10-26T06:57:38.205Z,12.03
2017-10-26T06:58:38.994Z,12.06
2017-10-26T06:59:39.861Z,12.09
2017-10-26T07:00:38.048Z,12.13
2017-10-26T07:01:38.490Z,12.17
2017-10-26T07:02:38.557Z,12.21
2017-10-26T07:03:37.736Z,12.22
2017-10-26T07:04:41.956Z,12.24
2017-10-26T07:05:38.103Z,12.25
2017-10-26T07:06:38.471Z,12.29
2017-10-26T07:07:37.849Z,12.31
2017-10-26T07:08:39.667Z,12.36
2017-10-26T07:09:38.106Z,12.37
2017-10-26T07:10:39.157Z,12.40
2017-10-26T07:11:39.572Z,12.43
2017-10-26T07:12:37.927Z,12.43
2017-10-26T07:13:38.262Z,12.47
2017-10-26T07:14:38.679Z,12.49
2017-10-26T07:15:38.221Z,12.53
2017-10-26T07:16:38.493Z,12.54
2017-10-26T07:17:37.564Z,12.55
2017-10-26T07:18:38.004Z,12.58
2017-10-26T07:19:38.800Z,12.62
2017-10-26T07:20:37.880Z,12.62
2017-10-26T07:21:37.858Z,12.64
2017-10-26T07:22:38.113Z,12.65
2017-10-26T07:23:37.774Z,12.68
2017-10-26T07:24:38.254Z,12.67
2017-10-26T07:25:38.969Z,12.70
2017-10-26T07:26:38.217Z,12.73
2017-10-26T07:27:38.298Z,12.78
2017-10-26T07:28:40.398Z,12.79
2017-10-26T07:29:37.755Z,12.83
2017-10-26T07:30:37.651Z,12.86
2017-10-26T07:31:38.409Z,12.87
2017-10-26T07:32:38.401Z,12.90
2017-10-26T07:33:38.074Z,12.90
2017-10-26T07:34:38.956Z,12.90
2017-10-26T07:35:38.253Z,12.87
2017-10-26T07:36:39.451Z,12.90
2017-10-26T07:37:37.401Z,12.91
2017-10-26T07:38:37.401Z,12.93
2017-10-26T07:39:37.597Z,12.94
2017-10-26T07:40:39.521Z,12.95
2017-10-26T07:41:37.762Z,12.97
2017-10-26T07:42:38.305Z,12.98
2017-10-26T07:43:38.540Z,13.03
2017-10-26T07:44:37.939Z,13.01
2017-10-26T07:45:38.260Z,13.08
2017-10-26T07:46:38.694Z,13.08
2017-10-26T07:47:38.919Z,13.12
2017-10-26T07:48:38.608Z,13.13
2017-10-26T07:49:37.623Z,13.18
2017-10-26T07:50:37.484Z,13.22
2017-10-26T07:51:41.059Z,13.25
2017-10-26T07:52:38.355Z,13.28
2017-10-26T07:53:37.669Z,13.31
2017-10-26T07:54:37.942Z,13.39
2017-10-26T07:55:37.947Z,13.44
2017-10-26T07:56:38.320Z,13.47
2017-10-26T07:57:37.694Z,13.49
2017-10-26T07:58:38.057Z,13.52
2017-10-26T07:59:38.303Z,13.54
2017-10-26T08:00:40.027Z,13.57
2017-10-26T08:01:38.925Z,13.62
2017-10-26T08:02:38.231Z,13.67
2017-10-26T08:03:38.427Z,13.71
2017-10-26T08:04:38.515Z,13.71
2017-10-26T08:05:37.520Z,13.74
2017-10-26T08:06:37.477Z,13.78
2017-10-26T08:07:38.504Z,13.79
2017-10-26T08:08:38.059Z,13.81
2017-10-26T08:09:38.807Z,13.81
2017-10-26T08:10:37.680Z,13.83
2017-10-26T08:11:38.106Z,13.86
2017-10-26T08:12:38.233Z,13.87
2017-10-26T08:13:37.949Z,13.87
2017-10-26T08:14:39.322Z,13.89
2017-10-26T08:15:38.318Z,13.89
2017-10-26T08:16:37.299Z,13.87
2017-10-26T08:17:38.295Z,13.86
2017-10-26T08:18:37.514Z,13.87
2017-10-26T08:19:37.400Z,13.86
2017-10-26T08:20:37.629Z,13.87
2017-10-26T08:21:38.297Z,13.90
2017-10-26T08:22:39.924Z,13.89
2017-10-26T08:23:37.981Z,13.87
2017-10-26T08:24:37.547Z,13.90
2017-10-26T08:25:37.892Z,13.89
2017-10-26T08:26:47.894Z,13.86
2017-10-26T08:27:47.846Z,13.87
2017-10-26T08:28:48.197Z,13.87
2017-10-26T08:29:47.676Z,13.87
2017-10-26T08:30:49.229Z,13.86
2017-10-26T08:31:48.459Z,13.87
2017-10-26T08:32:48.925Z,13.92
2017-10-26T08:33:47.855Z,13.92
2017-10-26T08:34:48.106Z,13.92
2017-10-26T08:35:48.426Z,13.96
2017-10-26T08:36:48.542Z,13.99
2017-10-26T08:37:47.637Z,14.00
2017-10-26T08:38:47.945Z,14.04
2017-10-26T08:39:48.647Z,14.07
2017-10-26T08:40:47.996Z,14.07
2017-10-26T08:41:48.670Z,14.10
2017-10-26T08:42:47.544Z,14.11
2017-10-26T08:43:48.381Z,14.15
2017-10-26T08:44:48.545Z,14.18
2017-10-26T08:45:48.739Z,14.22
2017-10-26T08:46:50.159Z,14.23
2017-10-26T08:47:52.788Z,14.25
2017-10-26T08:48:49.539Z,14.23
2017-10-26T08:49:49.860Z,14.26
2017-10-26T08:50:49.416Z,14.28
2017-10-26T08:51:48.902Z,14.32
2017-10-26T08:52:49.447Z,14.32
2017-10-26T08:53:48.599Z,14.29
2017-10-26T08:54:48.264Z,14.28
2017-10-26T08:55:48.015Z,14.29
2017-10-26T08:56:50.953Z,14.29
2017-10-26T08:57:48.346Z,14.29
2017-10-26T08:58:49.912Z,14.30
2017-10-26T08:59:49.163Z,14.35
2017-10-26T09:00:48.542Z,14.36
2017-10-26T09:01:47.988Z,14.37
2017-10-26T09:02:48.981Z,14.36
2017-10-26T09:03:49.653Z,14.40
2017-10-26T09:04:47.763Z,14.44
2017-10-26T09:05:48.192Z,14.43
2017-10-26T09:06:48.322Z,14.45
2017-10-26T09:07:48.303Z,14.43
2017-10-26T09:08:49.035Z,14.40
2017-10-26T09:09:51.216Z,14.35
2017-10-26T09:10:48.572Z,14.32
2017-10-26T09:11:47.735Z,14.32
2017-10-26T09:12:48.604Z,14.32
2017-10-26T09:13:49.753Z,14.29
2017-10-26T09:14:48.692Z,14.30
2017-10-26T09:15:48.158Z,14.32
2017-10-26T09:16:48.655Z,14.30
2017-10-26T09:17:47.699Z,14.29
2017-10-26T09:18:47.677Z,14.26
2017-10-26T09:19:48.885Z,14.26
2017-10-26T09:20:48.152Z,14.23
2017-10-26T09:21:49.167Z,14.23
2017-10-26T09:22:48.113Z,14.18
2017-10-26T09:23:49.364Z,14.18
2017-10-26T09:24:52.847Z,14.15
2017-10-26T09:25:48.646Z,14.17
2017-10-26T09:26:48.611Z,14.18
2017-10-26T09:27:48.109Z,14.17
2017-10-26T09:28:49.140Z,14.17
2017-10-26T09:29:49.235Z,14.14
2017-10-26T09:30:48.547Z,14.11
2017-10-26T09:31:48.080Z,14.12
2017-10-26T09:32:49.870Z,14.12
2017-10-26T09:33:47.824Z,14.17
2017-10-26T09:34:51.769Z,14.23
2017-10-26T09:35:47.649Z,14.29
2017-10-26T09:36:47.854Z,14.32
2017-10-26T09:37:48.776Z,14.32
2017-10-26T09:38:48.633Z,14.37
2017-10-26T09:39:47.559Z,14.44
2017-10-26T09:40:48.130Z,14.51
2017-10-26T09:41:47.598Z,14.53
2017-10-26T09:42:48.342Z,14.60
2017-10-26T09:43:47.727Z,14.62
2017-10-26T09:44:48.619Z,14.60
2017-10-26T09:45:48.120Z,14.58
2017-10-26T09:46:48.597Z,14.55
2017-10-26T09:47:48.013Z,14.54
2017-10-26T09:48:48.365Z,14.50
2017-10-26T09:49:48.744Z,14.48
2017-10-26T09:50:48.543Z,14.47
2017-10-26T09:51:47.642Z,14.51
2017-10-26T09:52:47.630Z,14.53
2017-10-26T09:53:48.088Z,14.50
2017-10-26T09:54:48.242Z,14.48
2017-10-26T09:55:48.453Z,14.44
2017-10-26T09:56:47.984Z,14.41
2017-10-26T09:57:49.217Z,14.37
2017-10-26T09:58:51.915Z,14.37
2017-10-26T09:59:48.131Z,14.45
2017-10-26T10:00:48.341Z,14.48
2017-10-26T10:01:48.288Z,14.51
2017-10-26T10:02:47.761Z,14.59
2017-10-26T10:03:47.958Z,14.63
2017-10-26T10:04:48.700Z,14.68
2017-10-26T10:05:48.996Z,14.70
2017-10-26T10:06:48.094Z,14.70
2017-10-26T10:07:48.901Z,14.77
2017-10-26T10:08:47.773Z,14.79
2017-10-26T10:09:49.552Z,14.78
2017-10-26T10:10:47.389Z,14.78
2017-10-26T10:11:47.986Z,14.73
2017-10-26T10:12:49.270Z,14.73
2017-10-26T10:13:48.195Z,14.69
2017-10-26T10:14:48.653Z,14.68
2017-10-26T10:15:48.008Z,14.68
2017-10-26T10:16:47.918Z,14.65
2017-10-26T10:17:48.755Z,14.66
2017-10-26T10:18:48.580Z,14.66
2017-10-26T10:19:48.034Z,14.65
2017-10-26T10:20:48.809Z,14.69
2017-10-26T10:21:48.303Z,14.77
2017-10-26T10:22:49.556Z,14.82
2017-10-26T10:23:48.017Z,14.84
2017-10-26T10:24:48.633Z,14.89
2017-10-26T10:25:48.575Z,14.97
2017-10-26T10:26:47.847Z,14.96
2017-10-26T10:27:49.508Z,14.97
2017-10-26T10:28:48.440Z,15.03
2017-10-26T10:29:49.964Z,14.94
2017-10-26T10:30:48.828Z,15.00
2017-10-26T10:31:49.208Z,15.07
2017-10-26T10:32:51.887Z,15.09
2017-10-26T10:33:48.399Z,15.15
2017-10-26T10:34:48.224Z,15.14
2017-10-26T10:35:49.261Z,15.04
2017-10-26T10:36:48.452Z,14.97
2017-10-26T10:37:49.135Z,14.99
2017-10-26T10:38:48.214Z,14.91
2017-10-26T10:39:48.614Z,14.92
2017-10-26T10:40:47.946Z,14.99
2017-10-26T10:41:48.632Z,15.19
2017-10-26T10:42:48.706Z,15.42
2017-10-26T10:43:48.077Z,15.58
2017-10-26T10:44:28.574Z,15.57
2017-10-26T10:45:30.049Z,15.61
2017-10-26T10:46:30.405Z,15.58
2017-10-26T10:47:31.810Z,15.64
2017-10-26T10:48:30.266Z,15.68
2017-10-26T10:49:30.456Z,15.79
2017-10-26T10:50:28.709Z,15.84
2017-10-26T10:51:29.623Z,15.90
2017-10-26T10:52:32.259Z,15.94
2017-10-26T10:53:29.447Z,16.15
2017-10-26T10:54:31.215Z,16.32
2017-10-26T10:55:30.786Z,16.60
2017-10-26T10:56:29.629Z,16.69
2017-10-26T10:57:29.316Z,16.69
2017-10-26T10:58:31.115Z,16.58
2017-10-26T10:59:29.388Z,16.51
2017-10-26T11:00:30.029Z,16.36
2017-10-26T11:01:29.660Z,16.36
2017-10-26T11:02:29.950Z,16.35
2017-10-26T11:03:28.994Z,16.38
2017-10-26T11:04:29.689Z,16.36
2017-10-26T11:05:30.068Z,16.39
2017-10-26T11:06:29.981Z,16.50
2017-10-26T11:07:29.531Z,16.32
2017-10-26T11:08:29.229Z,16.15
2017-10-26T11:09:29.949Z,16.02
2017-10-26T11:10:29.290Z,15.95
2017-10-26T11:11:30.174Z,15.94
2017-10-26T11:12:29.996Z,16.09
2017-10-26T11:13:29.306Z,16.17
2017-10-26T11:14:32.820Z,16.20
2017-10-26T11:15:29.108Z,16.10
2017-10-26T11:16:30.148Z,16.04
2017-10-26T11:17:29.875Z,15.95
2017-10-26T11:18:29.678Z,15.82
2017-10-26T11:19:29.632Z,15.72
2017-10-26T11:20:30.140Z,15.70
2017-10-26T11:21:29.386Z,15.73
2017-10-26T11:22:29.085Z,15.77
2017-10-26T11:23:30.053Z,15.76
2017-10-26T11:24:30.491Z,15.77
2017-10-26T11:25:29.421Z,15.77
2017-10-26T11:26:28.883Z,15.82
2017-10-26T11:27:29.729Z,15.82
2017-10-26T11:28:30.779Z,15.82
2017-10-26T11:29:30.153Z,15.76
2017-10-26T11:30:30.156Z,15.77
2017-10-26T11:31:30.419Z,15.95
2017-10-26T11:32:29.518Z,16.09
2017-10-26T11:33:29.563Z,16.31
2017-10-26T11:34:30.796Z,16.46
2017-10-26T11:35:28.925Z,16.71
2017-10-26T11:36:29.044Z,16.81
2017-10-26T11:37:29.358Z,17.02
2017-10-26T11:38:30.768Z,17.44
2017-10-26T11:39:31.424Z,17.71
2017-10-26T11:40:29.378Z,17.79
2017-10-26T11:41:30.248Z,18.10
2017-10-26T11:42:28.661Z,18.45
2017-10-26T11:43:29.132Z,18.75
2017-10-26T11:44:30.300Z,19.12
2017-10-26T11:45:29.406Z,19.59
2017-10-26T11:46:29.503Z,20.06
2017-10-26T11:47:29.066Z,20.69
2017-10-26T11:48:29.312Z,21.18
2017-10-26T11:49:36.123Z,21.43
2017-10-26T11:50:33.885Z,21.61
2017-10-26T11:51:28.940Z,21.79
2017-10-26T11:52:29.843Z,21.50
2017-10-26T11:53:28.945Z,21.45
2017-10-26T11:54:30.281Z,21.12
2017-10-26T11:55:28.640Z,21.24
2017-10-26T11:56:29.398Z,21.60
2017-10-26T11:57:29.227Z,21.57
2017-10-26T11:58:29.041Z,21.48
2017-10-26T11:59:29.855Z,21.83
2017-10-26T12:00:29.677Z,20.96
2017-10-26T12:01:31.012Z,20.28
2017-10-26T12:02:30.712Z,20.40
2017-10-26T12:03:29.958Z,20.67
2017-10-26T12:04:29.011Z,20.72
2017-10-26T12:05:29.741Z,20.19
2017-10-26T12:06:29.425Z,19.81
2017-10-26T12:07:28.990Z,20.32
2017-10-26T12:08:29.382Z,20.41
2017-10-26T12:09:29.869Z,20.11
2017-10-26T12:10:28.985Z,19.73
2017-10-26T12:11:29.957Z,19.09
2017-10-26T12:12:28.902Z,18.98
2017-10-26T12:13:29.549Z,19.59
2017-10-26T12:14:28.983Z,19.55
2017-10-26T12:15:29.626Z,19.18
2017-10-26T12:16:30.069Z,18.98
2017-10-26T12:17:29.833Z,19.08
2017-10-26T12:18:29.766Z,19.09
2017-10-26T12:19:31.096Z,19.27
2017-10-26T12:20:29.647Z,19.09
2017-10-26T12:21:28.822Z,18.86
2017-10-26T12:22:29.261Z,18.60
2017-10-26T12:23:30.177Z,19.00
2017-10-26T12:24:31.669Z,18.90
2017-10-26T12:25:28.803Z,18.47
2017-10-26T12:26:28.861Z,18.22
2017-10-26T12:27:29.930Z,18.20
2017-10-26T12:28:29.717Z,18.04
2017-10-26T12:29:32.633Z,17.79
2017-10-26T12:30:29.837Z,17.54
2017-10-26T12:31:29.354Z,17.41
2017-10-26T12:32:29.038Z,17.23
2017-10-26T12:33:28.586Z,17.05
2017-10-26T12:34:29.033Z,16.89
2017-10-26T12:35:29.008Z,16.93
2017-10-26T12:36:29.719Z,16.97
2017-10-26T12:37:31.503Z,16.99
2017-10-26T12:38:29.059Z,17.06
2017-10-26T12:39:30.411Z,17.27
2017-10-26T12:40:29.050Z,17.11
2017-10-26T12:41:29.048Z,17.22
2017-10-26T12:42:29.866Z,17.41
2017-10-26T12:43:29.527Z,17.64
2017-10-26T12:44:29.762Z,18.40
2017-10-26T12:45:29.378Z,19.00
2017-10-26T12:46:28.377Z,19.59
2017-10-26T12:47:29.075Z,19.62
2017-10-26T12:48:29.932Z,20.04
2017-10-26T12:49:29.223Z,20.19
2017-10-26T12:50:29.584Z,20.28
2017-10-26T12:51:29.888Z,20.48
2017-10-26T12:52:29.578Z,20.67